createdAt,value
2019-02-11T00:04:59.344Z,7.20
2019-02-11T00:10:02.747Z,7.10
2019-02-11T00:15:06.877Z,7.17
2019-02-11T00:20:10.286Z,5.73
2019-02-11T00:25:14.021Z,8.73
2019-02-11T00:30:17.424Z,8.67
2019-02-11T00:35:21.134Z,8.37
2019-02-11T00:40:24.525Z,6.00
2019-02-11T00:45:27.932Z,7.40
2019-02-11T00:50:31.332Z,4.70
2019-02-11T00:55:34.724Z,5.33
2019-02-11T01:00:38.126Z,4.43
2019-02-11T01:05:41.513Z,3.23
2019-02-11T01:10:44.911Z,2.63
2019-02-11T01:15:48.677Z,3.73
2019-02-11T01:20:52.434Z,5.60
2019-02-11T01:25:55.829Z,7.37
2019-02-11T01:30:59.233Z,5.47
2019-02-11T01:36:02.630Z,4.80
2019-02-11T01:41:06.029Z,5.43
2019-02-11T01:46:09.845Z,3.57
2019-02-11T01:51:13.189Z,6.07
2019-02-11T01:56:16.587Z,3.40
2019-02-11T02:01:19.994Z,4.07
2019-02-11T02:06:23.382Z,4.73
2019-02-11T02:11:26.781Z,5.23
2019-02-11T02:16:30.186Z,4.67
2019-02-11T02:21:33.580Z,4.63
2019-02-11T02:26:37.013Z,6.60
2019-02-11T02:31:40.414Z,4.33
2019-02-11T02:36:44.184Z,3.17
2019-02-11T02:41:47.937Z,2.67
2019-02-11T02:46:51.341Z,3.17
2019-02-11T02:51:54.730Z,3.27
2019-02-11T02:56:58.130Z,3.70
2019-02-11T03:02:01.601Z,2.07
2019-02-11T03:07:04.989Z,2.57
2019-02-11T03:12:08.389Z,3.37
2019-02-11T03:17:11.784Z,5.40
2019-02-11T03:22:15.178Z,4.47
2019-02-11T03:27:18.585Z,4.23
2019-02-11T03:32:22.291Z,3.00
2019-02-11T03:37:26.010Z,4.40
2019-02-11T03:42:29.406Z,4.83
2019-02-11T03:47:32.808Z,3.40
2019-02-11T03:52:36.606Z,5.17
2019-02-11T03:57:40.320Z,6.37
2019-02-11T04:02:43.721Z,7.55
2019-02-11T04:07:47.125Z,7.00
2019-02-11T04:12:50.523Z,7.07
2019-02-11T04:17:54.301Z,6.40
2019-02-11T04:22:57.723Z,8.67
2019-02-11T04:28:01.107Z,7.90
2019-02-11T04:33:04.511Z,9.50
2019-02-11T04:38:08.258Z,8.57
2019-02-11T04:43:11.651Z,8.77
2019-02-11T04:48:15.049Z,9.23
2019-02-11T04:53:18.440Z,7.87
2019-02-11T04:58:21.841Z,9.20
2019-02-11T05:03:25.236Z,12.63
2019-02-11T05:08:28.981Z,8.70
2019-02-11T05:13:32.380Z,9.83
2019-02-11T05:18:35.786Z,7.63
2019-02-11T05:23:39.518Z,8.23
2019-02-11T05:28:42.910Z,7.57
2019-02-11T05:34:05.750Z,6.63
2019-02-11T05:39:09.137Z,7.33
2019-02-11T05:44:12.529Z,6.80
2019-02-11T05:49:15.946Z,7.30
2019-02-11T05:54:19.335Z,9.50
2019-02-11T05:59:22.732Z,11.40
2019-02-11T06:04:26.127Z,9.70
2019-02-11T06:09:29.536Z,12.13
2019-02-11T06:14:33.274Z,11.37
2019-02-11T06:19:36.664Z,11.27
2019-02-11T06:24:40.071Z,13.70
2019-02-11T06:29:43.480Z,10.10
2019-02-11T06:34:46.878Z,9.60
2019-02-11T06:39:50.293Z,8.45
2019-02-11T06:44:53.685Z,10.67
2019-02-11T06:49:57.085Z,8.30
2019-02-11T06:55:00.487Z,12.37
2019-02-11T07:00:06.021Z,11.90
2019-02-11T07:05:09.416Z,12.87
2019-02-11T07:10:12.821Z,12.03
2019-02-11T07:15:21.803Z,12.23
2019-02-11T07:20:21.689Z,12.00
2019-02-11T07:25:25.103Z,12.33
2019-02-11T07:30:28.488Z,15.77
2019-02-11T07:35:31.917Z,17.07
2019-02-11T07:40:35.331Z,12.73
2019-02-11T07:45:52.140Z,14.07
2019-02-11T07:50:55.537Z,13.63
2019-02-11T07:55:58.943Z,11.33
2019-02-11T08:01:02.347Z,11.00
2019-02-11T08:06:06.382Z,11.90
2019-02-11T08:11:09.779Z,14.53
2019-02-11T08:16:13.169Z,8.37
2019-02-11T08:21:16.570Z,11.77
2019-02-11T08:26:19.973Z,10.77
2019-02-11T08:31:23.369Z,11.03
2019-02-11T08:36:26.773Z,11.10
2019-02-11T08:41:30.179Z,12.20
2019-02-11T08:46:33.574Z,10.70
2019-02-11T08:51:36.973Z,12.23
2019-02-11T08:56:40.394Z,15.97
2019-02-11T09:01:44.140Z,10.73
2019-02-11T09:06:47.547Z,12.30
2019-02-11T09:11:51.255Z,13.65
2019-02-11T09:16:54.671Z,13.10
2019-02-11T09:22:07.078Z,8.83
2019-02-11T09:27:03.788Z,11.30
2019-02-11T09:32:07.194Z,13.07
2019-02-11T09:37:10.596Z,10.90
2019-02-11T09:42:14.324Z,14.87
2019-02-11T09:47:17.728Z,11.03
2019-02-11T09:52:21.458Z,13.60
2019-02-11T09:57:24.932Z,13.43
2019-02-11T10:02:28.335Z,18.13
2019-02-11T10:07:31.731Z,13.63
2019-02-11T10:12:35.134Z,16.87
2019-02-11T10:17:38.884Z,13.23
2019-02-11T10:22:42.583Z,15.53
2019-02-11T10:27:46.302Z,13.03
2019-02-11T10:32:50.058Z,15.40
2019-02-11T10:37:53.460Z,14.10
2019-02-11T10:42:56.857Z,15.43
2019-02-11T10:48:00.261Z,13.13
2019-02-11T10:53:04.009Z,15.38
2019-02-11T10:58:07.425Z,12.10
2019-02-11T11:03:10.818Z,12.43
2019-02-11T11:08:14.217Z,12.77
2019-02-11T11:13:18.014Z,14.93
2019-02-11T11:18:21.734Z,13.80
2019-02-11T11:23:25.136Z,16.93
2019-02-11T11:28:28.858Z,15.20
2019-02-11T11:33:32.268Z,15.63
2019-02-11T11:38:36.030Z,16.60
2019-02-11T11:43:39.441Z,11.20
2019-02-11T11:48:42.845Z,15.73
2019-02-11T11:53:46.335Z,13.10
2019-02-11T11:58:50.113Z,12.33
2019-02-11T12:03:53.507Z,14.50
2019-02-11T12:08:59.202Z,16.07
2019-02-11T12:14:01.983Z,12.40
2019-02-11T12:19:05.370Z,11.77
2019-02-11T12:24:08.775Z,11.50
2019-02-11T12:29:12.410Z,12.37
2019-02-11T12:34:16.203Z,11.97
2019-02-11T12:39:19.622Z,13.67
2019-02-11T12:44:23.039Z,10.30
2019-02-11T12:49:26.455Z,12.13
2019-02-11T12:54:29.854Z,15.10
2019-02-11T12:59:33.497Z,15.43
2019-02-11T13:04:37.056Z,13.90
2019-02-11T13:09:40.461Z,12.80
2019-02-11T13:14:43.869Z,12.30
2019-02-11T13:19:47.306Z,8.67
2019-02-11T13:24:51.046Z,15.03
2019-02-11T13:29:54.438Z,9.57
2019-02-11T13:34:57.853Z,12.73
2019-02-11T13:40:01.398Z,8.57
2019-02-11T13:45:11.323Z,10.23
2019-02-11T13:50:28.289Z,8.17
2019-02-11T13:55:32.138Z,8.83
2019-02-11T14:00:36.477Z,9.67
2019-02-11T14:05:39.950Z,11.13
2019-02-11T14:10:43.771Z,10.97
2019-02-11T14:15:47.149Z,10.37
2019-02-11T14:20:50.901Z,11.23
2019-02-11T14:25:54.359Z,11.33
2019-02-11T14:30:57.756Z,10.80
2019-02-11T14:36:01.162Z,13.40
2019-02-11T14:41:04.564Z,9.00
2019-02-11T14:46:07.970Z,7.87
2019-02-11T14:51:11.349Z,9.00
2019-02-11T14:56:15.107Z,10.03
2019-02-11T15:01:18.505Z,8.43
2019-02-11T15:06:22.135Z,10.72
2019-02-11T15:11:25.535Z,17.60
2019-02-11T15:16:29.255Z,15.23
2019-02-11T15:21:32.659Z,26.07
2019-02-11T15:26:36.057Z,21.93
2019-02-11T15:31:39.812Z,32.17
2019-02-11T15:36:43.213Z,10.37
2019-02-11T15:41:46.684Z,15.80
2019-02-11T15:46:50.081Z,22.40
2019-02-11T15:51:53.492Z,15.03
2019-02-11T15:56:57.237Z,21.30
2019-02-11T16:02:00.932Z,12.63
2019-02-11T16:07:04.336Z,11.80
2019-02-11T16:12:07.816Z,23.23
2019-02-11T16:17:11.272Z,16.55
2019-02-11T16:22:14.669Z,15.47
2019-02-11T16:27:18.071Z,16.50
2019-02-11T16:32:21.474Z,14.97
2019-02-11T16:37:24.935Z,11.73
2019-02-11T16:42:28.272Z,9.80
2019-02-11T16:47:31.664Z,9.50
2019-02-11T16:52:35.079Z,9.88
2019-02-11T16:57:38.552Z,10.77
2019-02-11T17:02:41.943Z,9.33
2019-02-11T17:07:45.342Z,9.13
2019-02-11T17:12:48.824Z,16.80
2019-02-11T17:17:52.247Z,14.63
2019-02-11T17:22:55.609Z,11.00
2019-02-11T17:27:59.440Z,15.83
2019-02-11T17:33:02.840Z,14.25
2019-02-11T17:38:06.249Z,15.57
2019-02-11T17:43:10.027Z,19.27
2019-02-11T17:48:13.420Z,15.70
2019-02-11T17:53:20.349Z,16.87
2019-02-11T17:58:24.039Z,12.30
2019-02-11T18:03:27.454Z,34.20
2019-02-11T18:08:31.226Z,35.33
2019-02-11T18:13:34.628Z,20.97
2019-02-11T18:18:38.035Z,19.97
2019-02-11T18:23:41.742Z,13.03
2019-02-11T18:28:45.147Z,12.70
2019-02-11T18:33:48.554Z,15.10
2019-02-11T18:38:51.970Z,11.70
2019-02-11T18:43:55.725Z,16.70
2019-02-11T18:48:59.133Z,12.20
2019-02-11T18:54:03.008Z,22.83
2019-02-11T18:59:06.360Z,15.03
2019-02-11T19:04:09.854Z,13.53
2019-02-11T19:09:15.317Z,12.83
2019-02-11T19:14:18.713Z,11.93
2019-02-11T19:19:22.443Z,15.27
2019-02-11T19:24:25.843Z,17.07
2019-02-11T19:29:29.616Z,26.27
2019-02-11T19:34:33.018Z,17.23
2019-02-11T19:39:36.416Z,18.27
2019-02-11T19:44:40.245Z,15.40
2019-02-11T19:49:51.414Z,15.57
2019-02-11T19:54:48.817Z,22.93
2019-02-11T19:59:53.170Z,13.83
2019-02-11T20:04:56.578Z,10.00
2019-02-11T20:09:59.989Z,12.33
2019-02-11T20:15:04.529Z,13.13
2019-02-11T20:20:10.975Z,11.63
2019-02-11T20:25:14.392Z,15.50
2019-02-11T20:30:29.422Z,39.07
2019-02-11T20:35:32.953Z,13.23
2019-02-11T20:40:36.353Z,10.13
2019-02-11T20:45:40.109Z,12.57
2019-02-11T20:50:43.719Z,11.40
2019-02-11T20:55:47.479Z,30.43
2019-02-11T21:00:50.885Z,12.70
2019-02-11T21:05:54.262Z,11.03
2019-02-11T21:10:57.660Z,10.17
2019-02-11T21:16:01.138Z,9.40
2019-02-11T21:21:04.586Z,11.50
2019-02-11T21:26:08.792Z,13.93
2019-02-11T21:31:12.604Z,10.97
2019-02-11T21:36:16.004Z,12.60
2019-02-11T21:41:19.401Z,10.97
2019-02-11T21:46:23.165Z,9.77
2019-02-11T21:51:26.801Z,9.50
2019-02-11T21:56:30.622Z,10.07
2019-02-11T22:01:34.314Z,12.87
2019-02-11T22:06:37.793Z,12.53
2019-02-11T22:11:41.189Z,8.80
2019-02-11T22:16:44.594Z,10.90
2019-02-11T22:21:47.997Z,13.17
2019-02-11T22:26:51.393Z,11.50
2019-02-11T22:31:54.789Z,14.67
2019-02-11T22:36:58.217Z,11.17
2019-02-11T22:42:02.045Z,10.23
2019-02-11T22:47:05.521Z,15.53
2019-02-11T22:52:08.921Z,10.40
2019-02-11T22:57:12.329Z,11.67
2019-02-11T23:02:15.920Z,13.57
2019-02-11T23:07:19.447Z,12.53
2019-02-11T23:12:23.224Z,10.40
2019-02-11T23:17:26.933Z,10.90
2019-02-11T23:22:30.621Z,10.00
2019-02-11T23:27:34.020Z,11.23
2019-02-11T23:32:37.433Z,11.83
2019-02-11T23:37:41.217Z,10.53
2019-02-11T23:42:44.660Z,11.50
2019-02-11T23:47:48.065Z,10.40
2019-02-11T23:52:51.484Z,11.90
2019-02-11T23:57:54.886Z,11.57
